Time;durP1;ratioP1;P1;durP2;ratioP2;P2;SDS_P1;SDS_P2;PMS_P1;PMS_P2;Temp;Humidity;BMP_temperature;BMP_pressure;BME280_temperature;BME280_humidity;BME280_pressure;Samples;Min_cycle;Max_cycle;Signal;HPM_P1;HPM_P2
2022/07/08 00:02:06;;;;;;;3.17;2.10;;;22.10;52.70;23.20;102103.00;;;;5066661;28;20191;-43
2022/07/08 00:04:32;;;;;;;1.93;1.73;;;22.10;52.70;23.20;102106.00;;;;5066646;28;20165;-43
2022/07/08 00:06:58;;;;;;;3.33;2.00;;;22.10;52.70;23.30;102108.00;;;;5066573;28;20209;-43
2022/07/08 00:09:26;;;;;;;2.77;1.90;;;22.10;52.70;23.20;102104.00;;;;5065453;28;20833;-43
2022/07/08 00:11:52;;;;;;;1.90;1.60;;;22.10;52.70;23.20;102104.00;;;;5066623;28;20169;-42
2022/07/08 00:14:18;;;;;;;2.33;1.90;;;22.10;52.70;23.20;102104.00;;;;5066657;28;20236;-43
2022/07/08 00:16:44;;;;;;;3.87;2.00;;;22.10;52.70;23.20;102104.00;;;;5066559;28;20686;-43
2022/07/08 00:19:12;;;;;;;3.10;1.97;;;22.10;52.60;23.20;102100.00;;;;5066536;28;20811;-42
2022/07/08 00:21:38;;;;;;;3.90;2.10;;;22.10;52.70;23.20;102111.00;;;;5066416;28;20169;-43
2022/07/08 00:24:05;;;;;;;3.03;1.80;;;22.10;52.70;23.20;102109.00;;;;5066397;28;20177;-43
2022/07/08 00:26:30;;;;;;;3.33;1.93;;;22.10;52.80;23.20;102102.00;;;;5066849;28;20201;-42
2022/07/08 00:28:56;;;;;;;2.50;1.80;;;22.10;52.70;23.20;102104.00;;;;5066416;28;20334;-43
2022/07/08 00:31:23;;;;;;;3.10;2.00;;;22.10;52.70;23.20;102106.00;;;;5066435;28;20188;-43
2022/07/08 00:33:49;;;;;;;2.87;2.03;;;22.00;52.60;23.10;102105.00;;;;5066033;28;20168;-44
2022/07/08 00:36:14;;;;;;;3.03;1.70;;;22.10;52.70;23.10;102102.00;;;;5066029;28;20198;-44
2022/07/08 00:38:40;;;;;;;2.47;1.80;;;22.00;52.60;23.10;102088.00;;;;5066134;28;20761;-44
2022/07/08 00:41:06;;;;;;;2.37;1.80;;;22.10;52.60;23.10;102090.00;;;;5066471;28;20581;-44
2022/07/08 00:43:38;;;;;;;2.70;1.97;;;22.10;52.70;23.00;102091.00;;;;5066371;28;20821;-44
2022/07/08 00:46:04;;;;;;;1.93;1.70;;;22.10;52.70;23.10;102093.00;;;;5066188;28;20251;-43
2022/07/08 00:48:29;;;;;;;4.27;1.93;;;22.10;52.70;23.10;102097.00;;;;5065984;28;20180;-43
2022/07/08 00:50:57;;;;;;;2.70;1.90;;;22.00;52.60;23.10;102108.00;;;;5066112;28;20276;-43
2022/07/08 00:53:23;;;;;;;2.03;1.80;;;22.00;52.60;23.10;102103.00;;;;5048711;28;20243;-43
2022/07/08 00:55:49;;;;;;;2.70;1.93;;;22.00;52.60;23.10;102108.00;;;;5066060;28;20166;-44
2022/07/08 00:58:15;;;;;;;2.30;1.90;;;22.00;53.30;23.10;102038.00;;;;5047839;28;20241;-44
2022/07/08 01:00:41;;;;;;;3.10;1.80;;;22.00;52.70;23.00;102110.00;;;;5066016;28;20208;-44
2022/07/08 01:03:06;;;;;;;2.80;1.60;;;22.00;52.60;23.00;102117.00;;;;5073092;28;20272;-44
2022/07/08 01:05:32;;;;;;;2.00;1.50;;;22.00;52.70;23.00;102090.00;;;;5084463;28;20200;-43
2022/07/08 01:07:58;;;;;;;2.23;1.60;;;22.00;52.70;23.00;102118.00;;;;5071848;28;20231;-44
2022/07/08 01:10:24;;;;;;;2.70;1.63;;;22.00;52.70;23.00;102112.00;;;;5066031;28;20724;-42
2022/07/08 01:12:50;;;;;;;1.97;1.70;;;21.90;52.60;23.00;102121.00;;;;5066259;28;20205;-43
2022/07/08 01:15:16;;;;;;;2.57;1.90;;;21.90;52.60;23.00;102122.00;;;;5065921;28;20174;-42
2022/07/08 01:17:43;;;;;;;3.07;1.90;;;22.00;52.70;23.00;102127.00;;;;5065657;28;20193;-42
2022/07/08 01:20:10;;;;;;;2.03;1.67;;;22.00;53.40;23.00;102128.00;;;;5065792;28;20627;-43
2022/07/08 01:22:36;;;;;;;2.50;1.63;;;21.90;52.70;23.00;102130.00;;;;5065581;28;20181;-43
2022/07/08 01:25:02;;;;;;;2.53;1.90;;;22.00;52.90;23.00;102130.00;;;;5065782;28;20208;-43
2022/07/08 01:27:28;;;;;;;2.83;1.80;;;21.90;52.80;23.00;102118.00;;;;5030893;28;20203;-43
2022/07/08 01:29:54;;;;;;;2.90;1.70;;;21.90;52.80;22.90;102129.00;;;;5064532;28;20201;-43
2022/07/08 01:32:19;;;;;;;2.40;1.80;;;21.90;52.90;22.90;102128.00;;;;5064505;28;20166;-43
2022/07/08 01:34:45;;;;;;;2.00;1.80;;;21.90;52.90;22.90;102122.00;;;;5065938;28;20680;-43
2022/07/08 01:37:11;;;;;;;1.90;1.70;;;21.90;52.90;22.90;102116.00;;;;5065369;28;20196;-45
2022/07/08 01:39:37;;;;;;;2.07;1.77;;;21.80;52.90;22.90;102119.00;;;;5065767;28;20169;-43
2022/07/08 01:42:03;;;;;;;3.57;2.10;;;21.90;53.00;22.90;102128.00;;;;5065703;28;20282;-43
2022/07/08 01:44:28;;;;;;;2.00;1.70;;;21.90;53.00;22.90;102116.00;;;;5065752;28;20174;-43
2022/07/08 01:46:54;;;;;;;2.40;1.80;;;21.90;53.00;22.90;102121.00;;;;5072566;28;20291;-43
2022/07/08 01:49:20;;;;;;;3.67;1.80;;;21.80;52.90;22.90;102126.00;;;;5078304;28;20189;-44
2022/07/08 01:51:46;;;;;;;2.17;1.87;;;21.80;53.00;22.90;102119.00;;;;5065539;28;20169;-43
2022/07/08 01:54:12;;;;;;;1.97;1.70;;;21.80;53.00;22.90;102115.00;;;;5065345;28;20166;-43
2022/07/08 01:56:37;;;;;;;2.90;2.00;;;21.90;53.10;22.90;102115.00;;;;5065607;28;20185;-44
2022/07/08 01:59:03;;;;;;;2.50;1.90;;;21.80;53.00;22.80;102098.00;;;;5065517;28;20166;-43
2022/07/08 02:01:29;;;;;;;2.63;1.70;;;21.80;53.00;22.80;102119.00;;;;5065265;28;20223;-43
2022/07/08 02:03:55;;;;;;;2.83;1.90;;;21.80;53.00;22.80;102118.00;;;;5065401;28;20172;-43
2022/07/08 02:06:20;;;;;;;2.60;1.73;;;21.80;53.10;22.80;102120.00;;;;5065502;28;20189;-43
2022/07/08 02:08:46;;;;;;;2.30;1.80;;;21.90;53.30;22.80;102131.00;;;;5065191;28;20166;-43
2022/07/08 02:13:56;;;;;;;2.13;1.63;;;21.90;53.20;22.80;102120.00;;;;5065264;28;20211;-43
2022/07/08 02:16:22;;;;;;;1.73;1.60;;;21.80;53.10;22.80;102116.00;;;;5065602;28;20588;-43
2022/07/08 02:18:48;;;;;;;2.20;1.70;;;21.80;53.10;22.70;102121.00;;;;5066003;28;20789;-42
2022/07/08 02:21:13;;;;;;;2.90;1.80;;;21.80;53.10;22.70;102116.00;;;;5069023;28;20169;-43
2022/07/08 02:23:39;;;;;;;2.63;1.90;;;21.80;53.10;22.80;102117.00;;;;5068522;28;20562;-43
2022/07/08 02:26:05;;;;;;;1.87;1.60;;;21.80;53.20;22.70;102128.00;;;;5068469;28;20185;-43
2022/07/08 02:28:31;;;;;;;4.00;2.00;;;21.80;53.20;22.70;102114.00;;;;5068115;28;20196;-43
2022/07/08 02:30:56;;;;;;;3.87;1.70;;;21.80;53.30;22.70;102112.00;;;;5068427;28;20200;-43
2022/07/08 02:33:22;;;;;;;3.00;1.73;;;21.80;53.20;22.70;102117.00;;;;5068369;28;20165;-43
2022/07/08 02:35:48;;;;;;;2.03;1.60;;;21.70;53.20;22.70;102110.00;;;;5068310;28;20172;-43
2022/07/08 02:38:13;;;;;;;2.53;1.93;;;21.70;53.30;22.70;102080.00;;;;5068101;28;20177;-43
2022/07/08 02:40:39;;;;;;;3.20;1.90;;;21.70;53.20;22.70;102111.00;;;;5072238;28;20173;-43
2022/07/08 02:43:09;;;;;;;3.47;1.97;;;21.70;53.20;22.70;102110.00;;;;5086798;28;20161;-43
2022/07/08 02:45:37;;;;;;;3.40;2.10;;;21.70;53.20;22.70;102116.00;;;;5084062;28;20168;-44
2022/07/08 02:48:04;;;;;;;1.90;1.60;;;21.70;53.30;22.70;102119.00;;;;5068138;28;20177;-44
2022/07/08 02:50:30;;;;;;;2.07;1.70;;;21.70;53.30;22.70;102122.00;;;;5068432;28;20200;-44
2022/07/08 02:52:56;;;;;;;2.43;1.80;;;21.70;53.40;22.60;102117.00;;;;5068273;28;20162;-44
2022/07/08 02:55:22;;;;;;;2.33;1.67;;;21.70;53.40;22.60;102114.00;;;;5068515;28;20196;-43
2022/07/08 02:57:47;;;;;;;2.33;1.60;;;21.60;53.40;22.60;102115.00;;;;5067887;28;20194;-43
2022/07/08 03:00:13;;;;;;;2.37;1.70;;;21.70;53.40;22.60;102113.00;;;;5068334;28;20180;-42
2022/07/08 03:02:39;;;;;;;2.27;1.70;;;21.70;54.00;22.60;102116.00;;;;5068461;28;20214;-43
2022/07/08 03:05:05;;;;;;;3.00;1.80;;;21.70;53.40;22.60;102121.00;;;;5067429;28;20272;-43
2022/07/08 03:07:31;;;;;;;2.17;1.60;;;21.70;53.40;22.60;102125.00;;;;5078688;28;20209;-43
2022/07/08 03:09:57;;;;;;;2.70;1.60;;;21.60;53.30;22.60;102121.00;;;;5088078;28;20334;-43
2022/07/08 03:12:22;;;;;;;3.33;1.63;;;21.60;53.30;22.60;102037.00;;;;5087774;28;20213;-43
2022/07/08 03:14:48;;;;;;;2.20;1.53;;;21.60;53.30;22.60;102130.00;;;;5087795;28;20864;-43
2022/07/08 03:17:14;;;;;;;2.77;1.70;;;21.70;53.40;22.60;102143.00;;;;5087418;28;20748;-44
2022/07/08 03:19:40;;;;;;;2.30;1.70;;;21.70;53.30;22.60;102136.00;;;;5087794;28;20687;-44
2022/07/08 03:22:06;;;;;;;3.53;2.00;;;21.70;53.40;22.60;102136.00;;;;5087438;28;20173;-43
2022/07/08 03:24:31;;;;;;;4.27;1.83;;;21.70;53.40;22.50;102143.00;;;;5087174;28;20308;-43
2022/07/08 03:26:57;;;;;;;2.30;1.73;;;21.60;53.30;22.50;102143.00;;;;5087149;28;20197;-44
2022/07/08 03:29:23;;;;;;;4.60;2.00;;;21.60;53.40;22.50;102139.00;;;;5085987;28;20196;-44
2022/07/08 03:31:49;;;;;;;12.13;2.30;;;21.70;53.50;22.60;102143.00;;;;5086612;28;20188;-43
2022/07/08 03:34:14;;;;;;;4.07;1.70;;;21.60;53.50;22.60;102137.00;;;;5087192;28;20225;-42
2022/07/08 03:36:40;;;;;;;4.23;1.70;;;21.60;53.50;22.60;102142.00;;;;5105939;28;20192;-43
2022/07/08 03:39:06;;;;;;;2.57;1.77;;;21.60;53.30;22.60;102134.00;;;;5087065;28;20295;-42
2022/07/08 03:41:32;;;;;;;4.97;2.13;;;21.60;53.20;22.50;102137.00;;;;5087098;28;20195;-43
2022/07/08 03:43:57;;;;;;;4.03;1.90;;;21.60;53.20;22.50;102141.00;;;;5087053;28;20168;-43
2022/07/08 03:46:23;;;;;;;4.50;2.10;;;21.60;53.30;22.50;102145.00;;;;5086626;28;20192;-43
2022/07/08 03:48:49;;;;;;;2.23;1.80;;;21.60;53.30;22.50;102145.00;;;;5087123;28;20254;-43
2022/07/08 03:51:15;;;;;;;2.43;1.70;;;21.60;53.20;22.50;102143.00;;;;5086913;28;20196;-43
2022/07/08 03:53:41;;;;;;;2.27;1.63;;;21.60;53.30;22.50;102153.00;;;;5086563;28;20638;-43
2022/07/08 03:56:07;;;;;;;2.43;1.63;;;21.50;53.20;22.50;102148.00;;;;5086660;28;20334;-43
2022/07/08 03:58:34;;;;;;;3.30;1.90;;;21.60;53.20;22.40;102145.00;;;;5086591;28;20533;-43
2022/07/08 04:01:00;;;;;;;2.50;1.70;;;21.50;53.20;22.40;102151.00;;;;5086453;28;20684;-43
2022/07/08 04:03:26;;;;;;;4.67;1.90;;;21.50;53.20;22.40;102150.00;;;;5086700;28;20207;-43
2022/07/08 04:05:51;;;;;;;2.23;1.90;;;21.50;53.20;22.40;102159.00;;;;5086703;28;20198;-43
2022/07/08 04:08:18;;;;;;;4.50;2.10;;;21.50;53.20;22.40;102148.00;;;;5086113;28;20236;-43
2022/07/08 04:10:44;;;;;;;2.50;1.63;;;21.50;53.20;22.40;102154.00;;;;5086624;28;20701;-42
2022/07/08 04:13:10;;;;;;;2.30;1.80;;;21.50;53.20;22.40;102156.00;;;;5086405;28;20197;-43
2022/07/08 04:15:35;;;;;;;3.60;1.80;;;21.40;53.10;22.40;102152.00;;;;5086513;28;20661;-43
2022/07/08 04:18:01;;;;;;;2.60;1.70;;;21.50;53.20;22.40;102152.00;;;;5085688;28;20189;-44
2022/07/08 04:20:28;;;;;;;1.97;1.60;;;21.40;53.10;22.40;102154.00;;;;5086452;28;20676;-43
2022/07/08 04:22:53;;;;;;;3.77;2.00;;;21.40;53.10;22.30;102153.00;;;;5095106;28;20184;-42
2022/07/08 04:25:19;;;;;;;3.07;2.00;;;21.40;53.10;22.30;102153.00;;;;5102354;28;20158;-44
2022/07/08 04:27:45;;;;;;;3.43;1.90;;;21.40;53.10;22.30;102157.00;;;;5095374;28;20596;-43
2022/07/08 04:30:12;;;;;;;3.13;1.73;;;21.40;53.10;22.30;102168.00;;;;5086330;28;20408;-43
2022/07/08 04:32:37;;;;;;;2.80;2.00;;;21.40;53.10;22.30;102161.00;;;;5086126;28;20715;-43
2022/07/08 04:35:04;;;;;;;2.13;1.87;;;21.40;53.10;22.30;102159.00;;;;5085900;28;20247;-43
2022/07/08 04:37:30;;;;;;;2.87;1.77;;;21.40;53.10;22.30;102162.00;;;;5085086;28;20279;-42
2022/07/08 04:39:56;;;;;;;1.87;1.60;;;21.40;53.10;22.30;102161.00;;;;5085724;28;20263;-43
2022/07/08 04:42:21;;;;;;;2.57;1.80;;;21.40;53.10;22.30;102166.00;;;;5085708;28;20660;-42
2022/07/08 04:44:47;;;;;;;2.40;1.90;;;21.40;53.20;22.30;102159.00;;;;5086291;28;20203;-42
2022/07/08 04:47:13;;;;;;;1.97;1.60;;;21.40;53.20;22.30;102155.00;;;;5085442;28;20355;-43
2022/07/08 04:49:39;;;;;;;3.77;1.80;;;21.40;53.20;22.30;102165.00;;;;5085972;28;20235;-43
2022/07/08 04:52:07;;;;;;;2.60;1.73;;;21.40;53.20;22.20;102171.00;;;;5086194;28;20868;-43
2022/07/08 04:54:34;;;;;;;3.40;1.90;;;21.30;53.20;22.20;102180.00;;;;5086039;28;20221;-43
2022/07/08 04:57:00;;;;;;;2.60;1.73;;;21.40;53.30;22.20;102188.00;;;;5085722;28;20188;-43
2022/07/08 04:59:25;;;;;;;2.80;1.93;;;21.30;53.30;22.20;102183.00;;;;5085478;28;20639;-43
2022/07/08 05:01:51;;;;;;;7.50;2.47;;;21.40;53.40;22.20;102190.00;;;;5086270;28;20725;-43
2022/07/08 05:04:17;;;;;;;9.63;2.83;;;21.30;53.30;22.20;102194.00;;;;5085699;28;20191;-44
2022/07/08 05:06:43;;;;;;;7.00;2.50;;;21.30;53.40;22.20;102191.00;;;;5085549;28;20588;-44
2022/07/08 05:09:09;;;;;;;6.23;2.30;;;21.30;53.40;22.00;102197.00;;;;5085519;28;20176;-44
2022/07/08 05:11:34;;;;;;;11.97;2.60;;;21.30;53.40;22.20;102164.00;;;;5085915;28;20680;-44
2022/07/08 05:14:00;;;;;;;9.23;2.70;;;21.40;53.40;22.20;102195.00;;;;5086023;28;20199;-43
2022/07/08 05:16:27;;;;;;;5.90;2.17;;;21.30;53.40;22.20;102199.00;;;;5086878;28;20192;-42
2022/07/08 05:18:52;;;;;;;5.63;2.30;;;21.30;53.50;22.20;102201.00;;;;5086023;28;20260;-43
2022/07/08 05:21:18;;;;;;;6.67;2.70;;;21.40;53.50;22.20;102217.00;;;;5085976;28;20584;-43
2022/07/08 05:23:44;;;;;;;6.73;2.33;;;21.30;53.50;22.20;102216.00;;;;5085438;28;20272;-43
2022/07/08 05:26:10;;;;;;;7.83;2.67;;;21.30;53.50;22.30;102224.00;;;;5105608;28;20196;-43
2022/07/08 05:28:35;;;;;;;5.40;2.47;;;21.30;53.50;22.20;102221.00;;;;5086555;28;20179;-43
2022/07/08 05:31:01;;;;;;;8.10;2.43;;;21.30;53.50;22.20;102222.00;;;;5085639;28;20199;-44
2022/07/08 05:33:27;;;;;;;5.60;2.60;;;21.30;53.60;22.20;102215.00;;;;5085434;28;20681;-44
2022/07/08 05:35:53;;;;;;;9.23;2.70;;;21.30;53.50;22.20;102213.00;;;;5085270;28;20677;-43
2022/07/08 05:38:18;;;;;;;6.43;2.70;;;21.30;53.60;22.20;102216.00;;;;5067127;28;20175;-43
2022/07/08 05:40:44;;;;;;;5.17;2.40;;;21.30;53.50;22.20;102227.00;;;;5085520;28;20199;-43
2022/07/08 05:43:10;;;;;;;7.50;2.30;;;21.30;53.60;22.20;102214.00;;;;5085699;28;20184;-43
2022/07/08 05:45:36;;;;;;;3.70;2.43;;;21.30;53.50;22.30;102210.00;;;;5084332;28;20183;-43
2022/07/08 05:48:01;;;;;;;4.53;2.07;;;21.30;53.70;22.20;102218.00;;;;5085135;28;20679;-43
2022/07/08 05:50:27;;;;;;;4.40;2.00;;;21.30;53.70;22.20;102217.00;;;;5085677;28;20700;-43
2022/07/08 05:52:53;;;;;;;4.17;2.10;;;21.30;53.70;22.30;102216.00;;;;5087484;28;20188;-43
2022/07/08 05:55:19;;;;;;;5.83;2.50;;;21.30;53.70;22.20;102217.00;;;;5088880;28;20199;-43
2022/07/08 05:57:44;;;;;;;3.97;2.20;;;21.30;53.80;22.20;102226.00;;;;5098086;28;20204;-45
2022/07/08 06:00:11;;;;;;;4.17;2.20;;;21.30;53.80;22.20;102226.00;;;;5107830;28;20179;-44
2022/07/08 06:02:37;;;;;;;2.97;1.80;;;21.30;53.90;22.20;102227.00;;;;5102565;28;20544;-43
2022/07/08 06:05:03;;;;;;;4.33;2.40;;;21.30;53.90;22.20;102230.00;;;;5089330;28;20171;-42
2022/07/08 06:07:29;;;;;;;5.30;2.50;;;21.30;54.00;22.20;102231.00;;;;5088754;28;20196;-43
2022/07/08 06:09:54;;;;;;;5.63;2.30;;;21.20;53.90;22.20;102239.00;;;;5088900;28;20196;-43
2022/07/08 06:12:20;;;;;;;5.07;2.37;;;21.30;54.10;22.20;102232.00;;;;5088972;28;20203;-43
2022/07/08 06:14:46;;;;;;;4.53;2.20;;;21.30;54.10;22.20;102236.00;;;;5089050;28;20188;-43
2022/07/08 06:17:12;;;;;;;3.40;2.10;;;21.30;54.00;22.20;102233.00;;;;5088470;28;20198;-42
2022/07/08 06:19:37;;;;;;;5.60;2.00;;;21.20;54.00;22.20;102228.00;;;;5088852;28;20176;-43
2022/07/08 06:22:03;;;;;;;5.47;2.10;;;21.30;54.10;22.20;102161.00;;;;5088784;28;20173;-43
2022/07/08 06:24:29;;;;;;;4.40;1.93;;;21.30;54.20;22.20;102223.00;;;;5088592;28;20187;-43
2022/07/08 06:26:55;;;;;;;3.13;2.00;;;21.30;54.10;22.20;102233.00;;;;5088551;28;20741;-43
2022/07/08 06:29:21;;;;;;;4.20;2.20;;;21.20;54.10;22.00;102232.00;;;;5088438;28;20208;-42
2022/07/08 06:31:46;;;;;;;2.23;1.93;;;21.20;54.20;22.20;102246.00;;;;5088780;28;20179;-43
2022/07/08 06:34:12;;;;;;;3.90;2.23;;;21.30;54.20;22.20;102243.00;;;;5088472;28;20222;-42
2022/07/08 06:36:38;;;;;;;3.37;2.17;;;21.30;54.10;22.20;102244.00;;;;5087910;28;20245;-43
2022/07/08 06:39:03;;;;;;;3.87;1.80;;;21.30;54.20;22.20;102247.00;;;;5088040;28;20200;-43
2022/07/08 06:41:29;;;;;;;5.27;2.20;;;21.30;54.20;22.20;102250.00;;;;5088865;28;20176;-43
2022/07/08 06:43:55;;;;;;;4.03;2.10;;;21.20;54.20;22.20;102242.00;;;;5088584;28;20201;-43
2022/07/08 06:46:21;;;;;;;4.57;2.17;;;21.20;54.30;22.20;102245.00;;;;5088470;28;20193;-43
2022/07/08 06:48:46;;;;;;;6.13;2.20;;;21.20;54.40;22.20;102251.00;;;;5088039;28;20544;-42
2022/07/08 06:51:12;;;;;;;6.13;2.60;;;21.20;54.70;22.20;102251.00;;;;5088282;28;20196;-43
2022/07/08 06:56:23;;;;;;;5.27;2.13;;;21.30;54.50;22.20;102254.00;;;;5088212;28;20231;-43
2022/07/08 06:58:48;;;;;;;4.53;2.47;;;21.20;54.70;22.20;102255.00;;;;5087808;28;20192;-43
2022/07/08 07:01:14;;;;;;;7.90;2.30;;;21.20;54.50;22.20;102267.00;;;;5087891;28;20245;-43
2022/07/08 07:03:40;;;;;;;4.10;1.90;;;21.20;54.60;22.20;102266.00;;;;5087925;28;20172;-43
2022/07/08 07:06:06;;;;;;;3.10;2.00;;;21.20;54.70;22.20;102264.00;;;;5086412;28;20193;-44
2022/07/08 07:08:32;;;;;;;4.33;1.97;;;21.20;54.70;22.20;102269.00;;;;5087865;28;20183;-44
2022/07/08 07:10:58;;;;;;;6.07;2.10;;;21.20;54.70;22.10;102270.00;;;;5088043;28;20193;-43
2022/07/08 07:13:24;;;;;;;3.50;2.17;;;21.20;54.70;22.20;102273.00;;;;5087917;28;20980;-43
2022/07/08 07:15:50;;;;;;;3.00;2.20;;;21.20;54.70;22.20;102277.00;;;;5087823;28;20424;-42
2022/07/08 07:18:16;;;;;;;3.67;2.07;;;21.20;54.70;22.20;102266.00;;;;5086524;28;20419;-44
2022/07/08 07:20:41;;;;;;;2.93;2.00;;;21.20;54.70;22.20;102274.00;;;;5087345;28;20175;-43
2022/07/08 07:23:07;;;;;;;3.43;2.10;;;21.20;54.70;22.20;102274.00;;;;5103569;28;20246;-44
2022/07/08 07:25:33;;;;;;;2.53;2.10;;;21.20;54.70;22.20;102265.00;;;;5096495;28;20177;-44
2022/07/08 07:27:59;;;;;;;3.10;2.10;;;21.20;54.80;22.20;102264.00;;;;5092635;28;20176;-44
2022/07/08 07:30:25;;;;;;;4.57;2.10;;;21.20;54.80;22.20;102261.00;;;;5086303;28;20216;-45
2022/07/08 07:32:51;;;;;;;4.47;2.00;;;21.20;55.20;22.20;102262.00;;;;5087158;28;20179;-45
2022/07/08 07:35:17;;;;;;;4.33;2.13;;;21.20;55.10;22.20;102263.00;;;;5105472;28;20165;-44
2022/07/08 07:37:42;;;;;;;3.63;2.30;;;21.10;55.00;22.20;102254.00;;;;5105501;28;20220;-43
2022/07/08 07:40:08;;;;;;;3.37;2.07;;;21.10;54.90;22.20;102272.00;;;;5091342;28;20238;-43
2022/07/08 07:42:34;;;;;;;3.07;2.37;;;21.20;55.00;22.20;102266.00;;;;4938395;28;20245;-43
2022/07/08 07:45:03;;;;;;;3.73;2.07;;;21.20;55.10;22.20;102279.00;;;;5084559;28;20181;-44
2022/07/08 07:47:28;;;;;;;4.67;2.10;;;21.20;55.10;22.20;102278.00;;;;5108750;28;20563;-43
2022/07/08 07:49:54;;;;;;;3.30;2.30;;;21.20;55.10;22.20;102287.00;;;;5090167;28;20207;-43
2022/07/08 07:52:21;;;;;;;2.57;2.20;;;21.20;55.10;22.20;102280.00;;;;5106020;28;20637;-44
2022/07/08 07:54:47;;;;;;;2.97;2.00;;;21.10;55.10;22.20;102283.00;;;;5090306;28;20658;-44
2022/07/08 07:57:13;;;;;;;4.23;2.13;;;21.20;55.20;22.20;102281.00;;;;5090380;28;20237;-44
2022/07/08 07:59:40;;;;;;;2.27;1.90;;;21.10;55.10;22.20;102281.00;;;;5090335;28;20634;-44
2022/07/08 08:02:06;;;;;;;3.30;2.10;;;21.10;55.10;22.20;102274.00;;;;5090222;28;20211;-44
2022/07/08 08:04:32;;;;;;;2.83;2.10;;;21.20;55.20;22.20;102283.00;;;;5090010;28;20650;-43
2022/07/08 08:06:57;;;;;;;3.17;2.10;;;21.10;55.10;22.20;102272.00;;;;5089711;28;20276;-44
2022/07/08 08:09:23;;;;;;;2.83;2.00;;;21.10;55.20;22.20;102282.00;;;;5089701;28;20173;-43
2022/07/08 08:11:49;;;;;;;2.90;2.10;;;21.20;55.30;22.20;102286.00;;;;5096033;28;20189;-44
2022/07/08 08:14:14;;;;;;;5.13;2.33;;;21.10;55.10;22.20;102290.00;;;;5095845;28;20192;-46
2022/07/08 08:16:40;;;;;;;3.20;2.20;;;21.20;55.20;22.20;102289.00;;;;5089093;28;20196;-43
2022/07/08 08:19:06;;;;;;;2.50;2.10;;;21.10;55.10;22.20;102287.00;;;;5089274;28;20172;-44
2022/07/08 08:21:32;;;;;;;2.47;2.07;;;21.10;55.10;22.20;102285.00;;;;5089342;28;20241;-43
2022/07/08 08:23:57;;;;;;;2.90;2.00;;;21.20;55.30;22.20;102222.00;;;;5089510;28;20195;-43
2022/07/08 08:26:23;;;;;;;2.23;2.00;;;21.20;55.20;22.10;102274.00;;;;5089041;28;20208;-44
2022/07/08 08:28:50;;;;;;;2.97;2.30;;;21.20;55.30;22.20;102282.00;;;;5089147;28;20554;-44
2022/07/08 08:31:16;;;;;;;2.20;2.00;;;21.20;55.30;22.20;102286.00;;;;5089114;28;20193;-44
2022/07/08 08:33:41;;;;;;;2.43;2.10;;;21.20;55.30;22.20;102287.00;;;;5089292;28;20247;-44
2022/07/08 08:36:08;;;;;;;2.07;1.90;;;21.20;55.30;22.20;102285.00;;;;5089351;28;20185;-44
2022/07/08 08:38:34;;;;;;;3.50;2.10;;;21.20;55.30;22.20;102297.00;;;;5069262;28;20185;-44
2022/07/08 08:40:59;;;;;;;3.57;2.10;;;21.20;55.50;22.20;102288.00;;;;5069094;28;20176;-44
2022/07/08 08:43:25;;;;;;;2.47;2.00;;;21.20;55.50;22.20;102283.00;;;;5018389;28;20639;-44
2022/07/08 08:45:54;;;;;;;7.20;2.47;;;21.20;55.50;22.20;102279.00;;;;5109799;28;20190;-43
2022/07/08 08:48:24;;;;;;;5.67;2.60;;;21.30;55.60;22.20;102274.00;;;;5109079;28;20562;-44
2022/07/08 08:50:54;;;;;;;6.67;2.50;;;21.30;55.60;22.20;102273.00;;;;5109417;28;20208;-44
2022/07/08 08:53:30;;;;;;;7.83;2.20;;;21.30;55.60;22.30;102269.00;;;;5109263;28;20188;-45
2022/07/08 08:55:57;;;;;;;3.47;2.23;;;21.30;55.60;22.20;102275.00;;;;5109533;28;20194;-43
2022/07/08 08:58:23;;;;;;;3.00;2.27;;;21.30;55.60;22.30;102277.00;;;;5117552;28;20164;-44
2022/07/08 09:00:49;;;;;;;4.73;2.30;;;21.20;55.50;22.30;102275.00;;;;5128171;28;20269;-45
2022/07/08 09:03:15;;;;;;;3.87;2.10;;;21.20;55.50;22.20;102267.00;;;;5130883;27;20180;-43
2022/07/08 09:05:40;;;;;;;5.47;2.40;;;21.20;55.50;22.30;102275.00;;;;5108877;28;20187;-44
2022/07/08 09:08:06;;;;;;;4.07;2.17;;;21.20;55.50;22.30;102281.00;;;;5099687;28;20625;-43
2022/07/08 09:10:34;;;;;;;5.30;2.20;;;21.30;55.60;22.30;102275.00;;;;5080157;28;20205;-43
2022/07/08 09:13:16;;;;;;;4.20;2.50;;;21.20;55.50;22.30;102280.00;;;;5068337;28;20231;-44
2022/07/08 09:15:54;;;;;;;3.90;2.20;;;21.20;55.60;22.30;102285.00;;;;5068333;28;20176;-43
2022/07/08 09:18:22;;;;;;;5.33;2.40;;;21.30;55.70;22.30;102281.00;;;;5068019;28;20165;-43
2022/07/08 09:20:54;;;;;;;2.77;2.17;;;21.30;55.60;22.30;102274.00;;;;5068611;28;20212;-42
2022/07/08 09:23:29;;;;;;;2.73;2.30;;;21.30;55.60;22.30;102273.00;;;;5066498;28;20192;-44
2022/07/08 09:25:57;;;;;;;3.27;2.20;;;21.30;55.60;22.30;102278.00;;;;5068456;28;20200;-44
2022/07/08 09:28:44;;;;;;;3.17;2.40;;;21.30;55.60;22.30;102277.00;;;;5068525;28;20700;-44
2022/07/08 09:31:15;;;;;;;3.67;2.10;;;21.30;55.60;22.30;102282.00;;;;5072020;28;20216;-44
2022/07/08 09:33:43;;;;;;;2.50;2.30;;;21.30;55.60;22.30;102284.00;;;;5071627;28;20263;-43
2022/07/08 09:36:10;;;;;;;3.67;2.30;;;21.30;55.60;22.30;102277.00;;;;5078087;28;20646;-43
2022/07/08 09:38:37;;;;;;;2.97;2.10;;;21.40;55.70;22.40;102281.00;;;;5106170;28;20169;-42
2022/07/08 09:41:06;;;;;;;4.07;2.10;;;21.30;55.60;22.40;102271.00;;;;5112603;28;20177;-46
2022/07/08 09:43:33;;;;;;;3.77;2.70;;;21.40;55.70;22.40;102272.00;;;;5017350;28;20642;-44
2022/07/08 09:46:07;;;;;;;5.30;2.53;;;21.40;55.70;22.40;102275.00;;;;5091157;28;20899;-43
2022/07/08 09:48:33;;;;;;;3.03;2.30;;;21.40;55.70;22.40;102273.00;;;;5092775;28;20652;-44
2022/07/08 09:51:00;;;;;;;2.53;2.33;;;21.40;55.80;22.40;102270.00;;;;5092313;28;20223;-44
2022/07/08 09:53:27;;;;;;;3.23;2.30;;;21.40;56.00;22.50;102270.00;;;;5092445;28;20559;-44
2022/07/08 09:55:55;;;;;;;2.47;2.27;;;21.50;56.00;22.50;102269.00;;;;5091987;28;20169;-43
2022/07/08 09:58:23;;;;;;;3.70;2.60;;;21.40;56.00;22.50;102274.00;;;;5091785;28;20157;-43
2022/07/08 10:00:51;;;;;;;2.67;2.30;;;21.50;56.20;22.50;102270.00;;;;5092314;28;20191;-43
2022/07/08 10:03:18;;;;;;;3.97;2.27;;;21.40;56.10;22.50;102268.00;;;;5092506;28;20606;-43
2022/07/08 10:05:43;;;;;;;3.07;2.40;;;21.50;56.30;22.50;102269.00;;;;5091606;28;20594;-43
2022/07/08 10:08:11;;;;;;;4.07;2.33;;;21.50;56.50;22.50;102262.00;;;;5091794;28;20215;-43
2022/07/08 10:10:39;;;;;;;2.97;2.50;;;21.50;56.60;22.50;102262.00;;;;5091820;28;20251;-42
2022/07/08 10:13:07;;;;;;;3.10;2.30;;;21.50;56.70;22.60;102269.00;;;;5091831;28;20169;-44
2022/07/08 10:15:35;;;;;;;2.83;2.20;;;21.50;56.80;22.60;102263.00;;;;5091864;28;20188;-42
2022/07/08 10:18:23;;;;;;;2.67;2.17;;;21.50;56.80;22.60;102251.00;;;;5091359;28;20175;-43
2022/07/08 10:21:05;;;;;;;3.03;2.10;;;21.60;57.10;22.60;102260.00;;;;5095099;28;20540;-44
2022/07/08 10:23:44;;;;;;;2.63;2.30;;;21.60;57.00;22.60;102260.00;;;;5090201;28;20187;-44
2022/07/08 10:26:11;;;;;;;3.80;2.27;;;21.60;57.00;22.60;102260.00;;;;5093964;28;20199;-44
2022/07/08 10:28:41;;;;;;;2.83;2.33;;;21.60;57.10;22.60;102264.00;;;;5090176;28;20306;-44
2022/07/08 10:31:26;;;;;;;2.63;2.30;;;21.60;57.20;22.60;102268.00;;;;5091549;28;20204;-44
2022/07/08 10:34:00;;;;;;;2.57;2.13;;;21.70;57.40;22.60;102264.00;;;;5091624;28;20152;-44
2022/07/08 10:36:26;;;;;;;3.20;2.30;;;21.70;57.40;22.60;102250.00;;;;5091509;28;20237;-43
2022/07/08 10:38:54;;;;;;;3.07;2.40;;;21.70;57.50;22.70;102252.00;;;;5107042;28;20652;-43
2022/07/08 10:41:22;;;;;;;3.37;2.37;;;21.70;57.50;22.70;102243.00;;;;5080551;28;20165;-44
2022/07/08 10:43:52;;;;;;;2.63;2.20;;;21.70;57.30;22.70;102242.00;;;;5066069;28;20180;-44
2022/07/08 10:46:19;;;;;;;3.90;2.20;;;21.80;57.50;22.70;102233.00;;;;5127735;27;20191;-44
2022/07/08 10:48:44;;;;;;;2.40;2.20;;;21.80;57.50;22.70;102247.00;;;;5099117;28;20211;-43
2022/07/08 10:51:25;;;;;;;2.30;2.10;;;21.80;57.50;22.70;102250.00;;;;5090912;28;20673;-44